TimeCST,TemperatureF,Dew PointF,Humidity,Sea Level PressureIn,VisibilityMPH,Wind Direction,Wind SpeedMPH,Gust SpeedMPH,PrecipitationIn,Events,Conditions,WindDirDegrees,DateUTC
12:22 AM,66.9,66.0,97,29.97,2.5,South,8.1,-,0.00,Rain,Rain,170,2013-11-06 06:22:00
12:30 AM,66.9,66.0,97,29.97,2.5,South,9.2,-,0.00,Rain,Light Rain,170,2013-11-06 06:30:00
12:37 AM,66.9,66.0,97,29.97,3.0,South,6.9,-,0.01,Rain,Light Rain,190,2013-11-06 06:37:00
12:45 AM,66.9,66.0,97,29.97,2.0,South,5.8,-,0.04,Rain,Rain,190,2013-11-06 06:45:00
12:53 AM,66.9,66.0,97,29.96,1.8,Variable,6.9,-,0.06,Rain,Rain,0,2013-11-06 06:53:00
1:41 AM,66.9,66.0,97,29.97,2.0,SW,9.2,-,0.22,Rain,Light Rain,230,2013-11-06 07:41:00
1:53 AM,66.9,66.0,97,29.95,3.0,SW,5.8,-,0.23,Rain,Light Rain,220,2013-11-06 07:53:00
1:59 AM,66.9,66.0,97,29.96,1.8,SSW,5.8,-,0.05,Rain,Rain,200,2013-11-06 07:59:00
2:13 AM,66.9,66.0,97,29.95,2.0,SSW,5.8,-,0.12,Rain,Light Rain,210,2013-11-06 08:13:00
2:21 AM,66.9,66.9,100,29.96,5.0,SSW,6.9,-,0.13,Rain,Light Rain,200,2013-11-06 08:21:00
2:38 AM,66.9,66.0,97,29.96,10.0,SW,8.1,-,0.13,,Overcast,230,2013-11-06 08:38:00
2:53 AM,66.9,66.9,100,29.95,5.0,South,9.2,-,0.13,Rain,Light Rain,190,2013-11-06 08:53:00
3:53 AM,68.0,66.9,96,29.96,6.0,SSW,6.9,-,0.00,,Overcast,210,2013-11-06 09:53:00
4:53 AM,68.0,66.9,96,29.95,5.0,SSW,5.8,-,0.00,,Overcast,200,2013-11-06 10:53:00
5:53 AM,68.0,66.9,96,29.96,5.0,SW,8.1,-,N/A,,Overcast,230,2013-11-06 11:53:00
6:34 AM,68.0,66.9,96,29.97,5.0,South,8.1,-,N/A,,Overcast,190,2013-11-06 12:34:00
6:41 AM,68.0,66.9,96,29.99,2.0,WNW,11.5,17.3,0.10,Rain,Light Rain,290,2013-11-06 12:41:00
6:47 AM,66.2,66.2,100,29.99,1.0,WNW,8.1,17.3,0.18,Rain,Heavy Rain,290,2013-11-06 12:47:00
6:48 AM,66.9,66.0,97,29.98,1.0,West,9.2,17.3,0.18,Rain,Heavy Rain,280,2013-11-06 12:48:00
7:00 AM,66.0,66.0,100,29.98,1.0,Calm,Calm,-,0.04,Rain,Rain,0,2013-11-06 13:00:00
7:07 AM,66.0,66.0,100,29.98,3.0,Calm,Calm,-,0.04,Rain,Light Rain,0,2013-11-06 13:07:00
7:23 AM,66.0,64.9,96,30.00,1.8,West,3.5,-,0.04,Rain,Rain,270,2013-11-06 13:23:00
7:35 AM,66.0,66.0,100,30.01,1.5,North,4.6,-,0.05,Rain,Light Rain,360,2013-11-06 13:35:00
7:49 AM,64.4,64.4,100,30.01,2.0,North,4.6,-,0.07,Rain,Rain,360,2013-11-06 13:49:00
7:53 AM,64.9,64.0,97,30.01,2.0,Calm,Calm,-,0.08,Rain,Rain,0,2013-11-06 13:53:00
8:16 AM,64.0,63.0,96,30.03,1.5,NW,4.6,-,N/A,Rain,Rain,320,2013-11-06 14:16:00
8:31 AM,63.0,62.1,97,30.03,3.0,NNW,4.6,-,N/A,Rain,Rain,330,2013-11-06 14:31:00
8:45 AM,63.0,61.0,93,30.03,6.0,NW,6.9,-,N/A,Rain,Light Rain,320,2013-11-06 14:45:00
8:53 AM,62.1,61.0,96,30.04,10.0,NW,6.9,-,N/A,Rain,Light Rain,320,2013-11-06 14:53:00
9:53 AM,59.0,57.0,93,30.08,10.0,Variable,6.9,-,0.00,Rain,Light Rain,0,2013-11-06 15:53:00
10:53 AM,54.0,52.0,93,30.12,10.0,NW,12.7,-,0.00,Rain,Light Rain,320,2013-11-06 16:53:00
11:53 AM,54.0,50.0,86,30.13,10.0,NNW,9.2,-,0.00,Rain,Light Rain,340,2013-11-06 17:53:00
12:11 PM,54.0,50.0,86,30.14,10.0,NNW,8.1,-,0.00,Rain,Light Rain,330,2013-11-06 18:11:00
12:53 PM,53.1,48.0,83,30.12,10.0,NNW,11.5,-,0.00,Rain,Light Rain,340,2013-11-06 18:53:00
1:44 PM,55.9,48.0,75,30.14,10.0,NW,8.1,-,0.00,Rain,Light Rain,320,2013-11-06 19:44:00
1:53 PM,55.0,46.0,72,30.14,10.0,NW,15.0,20.7,0.00,Rain,Light Rain,320,2013-11-06 19:53:00
2:53 PM,54.0,45.0,72,30.15,10.0,NW,10.4,-,0.00,Rain,Light Rain,320,2013-11-06 20:53:00
3:53 PM,52.0,44.1,74,30.17,10.0,NW,10.4,-,0.00,Rain,Light Rain,320,2013-11-06 21:53:00
4:53 PM,50.0,42.1,74,30.20,10.0,NNW,13.8,-,0.00,Rain,Light Rain,330,2013-11-06 22:53:00
5:53 PM,46.9,41.0,80,30.23,10.0,NW,5.8,-,0.00,Rain,Light Rain,310,2013-11-06 23:53:00
6:53 PM,45.0,39.0,80,30.25,10.0,Variable,3.5,-,0.00,,Clear,0,2013-11-07 00:53:00
7:53 PM,43.0,39.0,86,30.27,10.0,WNW,4.6,-,N/A,,Clear,290,2013-11-07 01:53:00
8:53 PM,42.1,37.9,85,30.28,10.0,West,4.6,-,N/A,,Clear,280,2013-11-07 02:53:00
9:53 PM,39.9,37.0,89,30.31,10.0,Calm,Calm,-,N/A,,Clear,0,2013-11-07 03:53:00
10:53 PM,37.9,37.9,100,30.32,9.0,Calm,Calm,-,N/A,,Clear,0,2013-11-07 04:53:00
11:16 PM,37.0,37.0,100,30.32,1.8,Calm,Calm,-,N/A,,Clear,0,2013-11-07 05:16:00
11:34 PM,36.0,36.0,100,30.33,2.0,Calm,Calm,-,N/A,,Clear,0,2013-11-07 05:34:00
11:40 PM,37.0,36.0,96,30.33,0.8,Calm,Calm,-,N/A,,Clear,0,2013-11-07 05:40:00
11:48 PM,37.4,35.6,93,30.33,0.2,Calm,Calm,-,N/A,Fog,Fog,0,2013-11-07 05:48:00
11:53 PM,36.0,36.0,100,30.33,0.2,Calm,Calm,-,N/A,Fog,Fog,0,2013-11-07 05:53:00